createdAt,value
2019-05-16T00:00:58.833Z,92.70
2019-05-16T00:03:27.986Z,93.00
2019-05-16T00:05:58.267Z,93.40
2019-05-16T00:08:25.093Z,93.50
2019-05-16T00:10:52.647Z,93.50
2019-05-16T00:13:20.426Z,93.70
2019-05-16T00:15:48.179Z,93.70
2019-05-16T00:18:17.761Z,93.90
2019-05-16T00:20:46.627Z,94.00
2019-05-16T00:23:14.129Z,94.10
2019-05-16T00:25:41.643Z,94.00
2019-05-16T00:28:09.546Z,93.80
2019-05-16T00:30:39.132Z,93.80
2019-05-16T00:33:08.300Z,93.70
2019-05-16T00:35:36.271Z,93.80
2019-05-16T00:38:03.733Z,93.80
2019-05-16T00:40:31.587Z,93.70
2019-05-16T00:42:59.188Z,93.70
2019-05-16T00:45:29.160Z,93.70
2019-05-16T00:47:58.285Z,93.90
2019-05-16T00:50:25.683Z,93.90
2019-05-16T00:52:53.519Z,94.30
2019-05-16T00:55:21.228Z,94.20
2019-05-16T00:57:49.636Z,94.00
2019-05-16T01:00:21.779Z,94.00
2019-05-16T01:02:49.337Z,94.20
2019-05-16T01:05:19.106Z,94.60
2019-05-16T01:07:48.065Z,94.70
2019-05-16T01:10:18.131Z,94.70
2019-05-16T01:12:47.895Z,94.80
2019-05-16T01:15:15.536Z,94.90
2019-05-16T01:17:43.614Z,94.90
2019-05-16T01:20:11.476Z,95.10
2019-05-16T01:22:39.012Z,94.80
2019-05-16T01:25:09.027Z,94.80
2019-05-16T01:27:38.373Z,94.90
2019-05-16T01:30:05.730Z,95.10
2019-05-16T01:32:33.548Z,95.20
2019-05-16T01:35:01.056Z,95.30
2019-05-16T01:37:28.507Z,95.30
2019-05-16T01:39:56.034Z,95.40
2019-05-16T01:42:24.024Z,95.40
2019-05-16T01:44:51.581Z,95.30
2019-05-16T01:47:19.014Z,94.90
2019-05-16T01:49:48.574Z,94.70
2019-05-16T01:52:17.689Z,94.80
2019-05-16T01:54:45.099Z,94.80
2019-05-16T01:57:12.507Z,95.10
2019-05-16T01:59:40.210Z,95.20
2019-05-16T02:02:08.507Z,95.40
2019-05-16T02:04:38.003Z,95.50
2019-05-16T02:07:05.658Z,95.60
2019-05-16T02:09:33.422Z,95.50
2019-05-16T02:12:01.255Z,95.20
2019-05-16T02:14:28.739Z,95.20
2019-05-16T02:16:58.035Z,95.30
2019-05-16T02:19:27.873Z,95.30
2019-05-16T02:21:55.296Z,95.40
2019-05-16T02:24:22.951Z,95.60
2019-05-16T02:26:52.369Z,95.80
2019-05-16T02:29:20.516Z,95.90
2019-05-16T02:31:51.122Z,96.00
2019-05-16T02:34:17.442Z,96.10
2019-05-16T02:37:08.302Z,96.10
2019-05-16T02:39:20.957Z,95.90
2019-05-16T02:41:47.151Z,95.90
2019-05-16T02:44:14.635Z,96.10
2019-05-16T02:46:43.363Z,96.10
2019-05-16T02:49:11.672Z,96.50
2019-05-16T02:51:40.653Z,96.10
2019-05-16T02:54:11.017Z,96.00
2019-05-16T02:56:37.850Z,96.00
2019-05-16T02:59:05.313Z,96.00
2019-05-16T03:01:33.391Z,96.00
2019-05-16T03:04:01.743Z,96.10
2019-05-16T03:06:32.132Z,96.10
2019-05-16T03:09:01.815Z,96.20
2019-05-16T03:11:31.438Z,96.20
2019-05-16T03:14:01.485Z,96.30
2019-05-16T03:16:31.755Z,96.40
2019-05-16T03:19:01.779Z,96.40
2019-05-16T03:21:32.647Z,96.50
2019-05-16T03:24:00.978Z,96.40
2019-05-16T03:26:31.439Z,96.40
2019-05-16T03:29:00.763Z,96.50
2019-05-16T03:31:27.574Z,96.60
2019-05-16T03:33:59.289Z,96.60
2019-05-16T03:36:25.798Z,96.90
2019-05-16T03:38:53.390Z,97.00
2019-05-16T03:41:21.552Z,96.90
2019-05-16T03:43:50.683Z,96.90
2019-05-16T03:46:21.512Z,96.80
2019-05-16T03:48:51.735Z,96.70
2019-05-16T03:51:18.076Z,96.70
2019-05-16T03:53:45.871Z,96.70
2019-05-16T03:56:13.412Z,96.80
2019-05-16T03:58:41.682Z,96.80
2019-05-16T04:01:11.100Z,97.30
2019-05-16T04:03:41.311Z,97.10
2019-05-16T04:06:11.713Z,97.10
2019-05-16T04:08:41.249Z,97.10
2019-05-16T04:11:11.381Z,97.00
2019-05-16T04:13:40.792Z,97.10
2019-05-16T04:16:06.680Z,97.20
2019-05-16T04:18:34.243Z,97.30
2019-05-16T04:21:01.688Z,97.40
2019-05-16T04:23:31.264Z,97.50
2019-05-16T04:26:00.653Z,97.70
2019-05-16T04:28:31.604Z,97.80
2019-05-16T04:31:01.411Z,98.10
2019-05-16T04:33:30.872Z,97.60
2019-05-16T04:35:57.687Z,97.80
2019-05-16T04:38:40.632Z,97.60
2019-05-16T04:40:54.526Z,97.60
2019-05-16T04:43:22.701Z,97.40
2019-05-16T04:45:52.114Z,97.40
2019-05-16T04:48:22.338Z,97.30
2019-05-16T04:50:51.583Z,97.30
2019-05-16T04:53:20.809Z,97.40
2019-05-16T04:55:51.627Z,97.40
2019-05-16T04:58:22.592Z,97.50
2019-05-16T05:00:46.924Z,97.60
2019-05-16T05:03:14.503Z,97.80
2019-05-16T05:05:42.455Z,97.80
2019-05-16T05:08:10.836Z,97.60
2019-05-16T05:10:40.682Z,97.60
2019-05-16T05:13:10.978Z,97.50
2019-05-16T05:15:40.124Z,97.80
2019-05-16T05:18:10.189Z,97.50
2019-05-16T05:20:37.397Z,97.60
2019-05-16T05:23:04.881Z,97.60
2019-05-16T05:25:32.521Z,97.80
2019-05-16T05:28:00.563Z,97.90
2019-05-16T05:30:30.242Z,98.00
2019-05-16T05:32:57.909Z,98.00
2019-05-16T05:35:25.685Z,98.00
2019-05-16T05:37:53.540Z,97.60
2019-05-16T05:40:21.160Z,97.30
2019-05-16T05:42:50.500Z,97.10
2019-05-16T05:45:20.137Z,96.90
2019-05-16T05:47:47.420Z,96.20
2019-05-16T05:50:15.397Z,95.80
2019-05-16T05:52:46.181Z,95.80
2019-05-16T05:55:12.621Z,95.80
2019-05-16T05:57:40.587Z,95.60
2019-05-16T06:00:09.915Z,95.20
2019-05-16T06:02:39.986Z,95.20
2019-05-16T06:05:07.297Z,94.80
2019-05-16T06:07:35.099Z,94.70
2019-05-16T06:10:02.822Z,94.50
2019-05-16T06:12:30.613Z,94.40
2019-05-16T06:15:05.958Z,94.40
2019-05-16T06:17:27.482Z,93.90
2019-05-16T06:19:55.031Z,94.00
2019-05-16T06:22:22.520Z,93.60
2019-05-16T06:24:50.498Z,93.80
2019-05-16T06:27:20.680Z,93.20
2019-05-16T06:29:49.700Z,93.30
2019-05-16T06:32:19.658Z,93.00
2019-05-16T06:34:46.971Z,93.10
2019-05-16T06:37:14.793Z,92.40
2019-05-16T06:39:45.319Z,92.90
2019-05-16T06:42:11.956Z,92.80
2019-05-16T06:44:40.132Z,92.50
2019-05-16T06:47:16.838Z,92.50
2019-05-16T06:49:40.166Z,92.70
2019-05-16T06:52:07.470Z,92.60
2019-05-16T06:54:35.472Z,92.90
2019-05-16T06:57:03.303Z,92.90
2019-05-16T06:59:30.755Z,92.70
2019-05-16T07:02:00.270Z,92.30
2019-05-16T07:04:27.566Z,92.50
2019-05-16T07:06:59.397Z,92.50
2019-05-16T07:09:24.932Z,92.10
2019-05-16T07:11:52.599Z,92.10
2019-05-16T07:14:22.914Z,92.10
2019-05-16T07:16:49.858Z,92.00
2019-05-16T07:19:18.046Z,92.00
2019-05-16T07:21:46.513Z,91.70
2019-05-16T07:24:16.589Z,91.80
2019-05-16T07:26:43.681Z,90.00
2019-05-16T07:29:11.223Z,90.10
2019-05-16T07:31:40.613Z,81.50
2019-05-16T07:34:10.434Z,81.30
2019-05-16T07:36:37.432Z,80.50
2019-05-16T07:39:05.329Z,81.70
2019-05-16T07:41:33.193Z,78.70
2019-05-16T07:44:01.100Z,77.70
2019-05-16T07:46:31.380Z,80.50
2019-05-16T07:49:00.938Z,79.20
2019-05-16T07:51:27.675Z,76.30
2019-05-16T07:53:55.114Z,73.90
2019-05-16T07:56:23.189Z,73.00
2019-05-16T07:58:55.224Z,72.50
2019-05-16T08:01:22.760Z,69.70
2019-05-16T08:03:51.122Z,69.40
2019-05-16T08:06:20.147Z,69.50
2019-05-16T08:08:50.596Z,68.70
2019-05-16T08:11:17.247Z,70.40
2019-05-16T08:13:44.829Z,68.30
2019-05-16T08:16:12.250Z,66.80
2019-05-16T08:18:44.724Z,67.40
2019-05-16T08:21:10.933Z,65.70
2019-05-16T08:23:41.198Z,67.20
2019-05-16T08:26:10.269Z,64.50
2019-05-16T08:28:41.012Z,60.50
2019-05-16T08:31:07.369Z,63.10
2019-05-16T08:33:35.379Z,62.80
2019-05-16T08:36:07.894Z,61.40
2019-05-16T08:38:32.610Z,62.40
2019-05-16T08:41:11.759Z,58.90
2019-05-16T08:43:31.691Z,58.80
2019-05-16T08:46:01.011Z,59.90
2019-05-16T08:48:31.430Z,60.40
2019-05-16T08:51:02.431Z,59.40
2019-05-16T08:53:27.045Z,59.80
2019-05-16T08:55:54.615Z,59.40
2019-05-16T08:58:23.393Z,59.90
2019-05-16T09:00:55.154Z,60.00
2019-05-16T09:03:22.162Z,61.90
2019-05-16T09:05:53.821Z,60.00
2019-05-16T09:08:20.134Z,59.60
2019-05-16T09:11:09.073Z,62.00
2019-05-16T09:13:17.651Z,60.10
2019-05-16T09:15:48.139Z,56.70
2019-05-16T09:18:17.552Z,57.10
2019-05-16T09:20:44.227Z,57.60
2019-05-16T09:23:11.832Z,58.00
2019-05-16T09:25:39.341Z,59.20
2019-05-16T09:28:07.587Z,55.00
2019-05-16T09:30:37.007Z,55.70
2019-05-16T09:33:06.975Z,55.50
2019-05-16T09:35:36.774Z,55.70
2019-05-16T09:38:03.835Z,54.10
2019-05-16T09:40:31.709Z,54.50
2019-05-16T09:42:59.613Z,54.10
2019-05-16T09:45:27.393Z,54.40
2019-05-16T09:47:57.369Z,54.70
2019-05-16T09:50:26.656Z,55.70
2019-05-16T09:52:56.434Z,56.60
2019-05-16T09:55:23.693Z,56.00
2019-05-16T09:57:54.682Z,58.10
2019-05-16T10:00:23.364Z,57.60
2019-05-16T10:02:51.330Z,56.10
2019-05-16T10:05:19.700Z,55.30
2019-05-16T10:07:47.406Z,56.20
2019-05-16T10:10:17.055Z,55.90
2019-05-16T10:12:44.489Z,57.30
2019-05-16T10:15:12.336Z,56.30
2019-05-16T10:17:39.963Z,54.70
2019-05-16T10:20:08.479Z,55.80
2019-05-16T10:22:37.342Z,55.70
2019-05-16T10:25:06.311Z,55.50
2019-05-16T10:27:33.923Z,56.10
2019-05-16T10:30:01.836Z,55.10
2019-05-16T10:32:29.484Z,55.60
2019-05-16T10:34:57.506Z,54.80
2019-05-16T10:37:26.917Z,55.10
2019-05-16T10:39:56.275Z,57.20
2019-05-16T10:42:28.781Z,56.20
2019-05-16T10:44:57.471Z,56.70
2019-05-16T10:47:24.082Z,58.20
2019-05-16T10:49:52.065Z,57.20
2019-05-16T10:52:19.729Z,56.10
2019-05-16T10:54:57.607Z,56.00
2019-05-16T10:57:17.061Z,57.20
2019-05-16T11:00:05.513Z,57.60
2019-05-16T11:02:16.535Z,58.90
2019-05-16T11:04:57.506Z,55.00
2019-05-16T11:07:14.477Z,54.20
2019-05-16T11:09:54.921Z,54.90
2019-05-16T11:12:12.079Z,55.40
2019-05-16T11:14:39.583Z,55.40
2019-05-16T11:17:12.953Z,56.40
2019-05-16T11:19:41.319Z,54.60
2019-05-16T11:22:09.110Z,55.10
2019-05-16T11:24:37.721Z,54.90
2019-05-16T11:27:07.541Z,54.70
2019-05-16T11:29:36.600Z,56.00
2019-05-16T11:32:06.705Z,56.70
2019-05-16T11:34:33.578Z,54.90
2019-05-16T11:37:01.746Z,53.10
2019-05-16T11:39:29.813Z,56.00
2019-05-16T11:41:57.807Z,58.60
2019-05-16T11:44:28.570Z,54.60
2019-05-16T11:46:57.653Z,52.10
2019-05-16T11:49:27.416Z,56.00
2019-05-16T11:51:57.463Z,53.80
2019-05-16T11:54:26.536Z,55.20
2019-05-16T11:56:54.243Z,54.50
2019-05-16T11:59:21.994Z,55.20
2019-05-16T12:01:49.560Z,53.50
2019-05-16T12:04:17.529Z,55.80
2019-05-16T12:06:46.871Z,54.70
2019-05-16T12:09:14.608Z,55.50
2019-05-16T12:11:42.489Z,54.80
2019-05-16T12:14:10.664Z,55.40
2019-05-16T12:16:38.848Z,55.80
2019-05-16T12:19:07.020Z,56.60
2019-05-16T12:21:34.709Z,57.40
2019-05-16T12:24:02.916Z,59.20
2019-05-16T12:26:30.865Z,57.80
2019-05-16T12:28:58.362Z,56.80
2019-05-16T12:31:26.034Z,57.50
2019-05-16T12:33:54.030Z,58.40
2019-05-16T12:36:21.957Z,58.90
2019-05-16T12:38:49.381Z,57.80
2019-05-16T12:41:16.939Z,57.50
2019-05-16T12:43:50.552Z,57.90
2019-05-16T12:46:14.364Z,57.80
2019-05-16T12:48:41.891Z,58.00
2019-05-16T12:51:09.496Z,58.00
2019-05-16T12:53:37.036Z,59.40
2019-05-16T12:56:05.192Z,60.40
2019-05-16T12:58:37.530Z,61.00
2019-05-16T13:01:02.256Z,60.40
2019-05-16T13:03:30.488Z,60.60
2019-05-16T13:05:58.700Z,60.90
2019-05-16T13:08:26.785Z,61.70
2019-05-16T13:10:57.226Z,60.80
2019-05-16T13:14:02.468Z,61.10
2019-05-16T13:16:18.815Z,61.00
2019-05-16T13:18:47.487Z,61.10
2019-05-16T13:21:18.427Z,62.20
2019-05-16T13:23:46.706Z,62.90
2019-05-16T13:26:17.202Z,61.60
2019-05-16T13:28:44.306Z,62.10
2019-05-16T13:31:13.663Z,63.30
2019-05-16T13:33:41.245Z,64.00
2019-05-16T13:36:08.986Z,62.90
2019-05-16T13:38:36.606Z,61.40
2019-05-16T13:41:07.138Z,61.40
2019-05-16T13:43:33.907Z,62.70
2019-05-16T13:46:01.378Z,62.50
2019-05-16T13:48:29.150Z,61.40
2019-05-16T13:51:10.572Z,61.60
2019-05-16T13:53:27.294Z,60.90
2019-05-16T13:55:55.064Z,62.40
2019-05-16T13:58:22.594Z,61.00
2019-05-16T14:00:57.721Z,58.90
2019-05-16T14:03:27.721Z,59.80
2019-05-16T14:05:55.081Z,59.00
2019-05-16T14:08:22.605Z,59.70
2019-05-16T14:10:50.396Z,59.50
2019-05-16T14:13:18.004Z,59.00
2019-05-16T14:15:47.349Z,59.50
2019-05-16T14:18:17.475Z,59.40
2019-05-16T14:20:46.469Z,61.20
2019-05-16T14:23:13.516Z,58.90
2019-05-16T14:25:41.320Z,59.80
2019-05-16T14:28:08.723Z,60.50
2019-05-16T14:30:37.278Z,61.80
2019-05-16T14:33:13.267Z,61.10
2019-05-16T14:35:37.389Z,61.40
2019-05-16T14:38:04.352Z,60.50
2019-05-16T14:40:31.879Z,60.80
2019-05-16T14:42:59.875Z,58.60
2019-05-16T14:45:27.459Z,58.50
2019-05-16T14:47:57.664Z,57.10
2019-05-16T14:50:27.326Z,57.50
2019-05-16T14:52:56.516Z,55.70
2019-05-16T14:55:23.212Z,55.90
2019-05-16T14:57:50.740Z,55.10
2019-05-16T15:00:18.951Z,54.60
2019-05-16T15:02:48.034Z,55.10
2019-05-16T15:05:16.335Z,57.00
2019-05-16T15:07:43.798Z,57.50
2019-05-16T15:10:11.582Z,57.50
2019-05-16T15:12:39.208Z,57.80
2019-05-16T15:15:20.217Z,59.00
2019-05-16T15:17:36.812Z,59.50
2019-05-16T15:20:06.710Z,61.10
2019-05-16T15:22:38.046Z,60.90
2019-05-16T15:25:07.989Z,62.30
2019-05-16T15:27:37.124Z,62.50
2019-05-16T15:30:06.966Z,63.90
2019-05-16T15:32:38.484Z,63.80
2019-05-16T15:35:07.253Z,64.10
2019-05-16T15:37:37.133Z,63.30
2019-05-16T15:40:07.069Z,64.40
2019-05-16T15:42:36.998Z,64.00
2019-05-16T15:45:06.829Z,66.10
2019-05-16T15:47:37.157Z,67.30
2019-05-16T15:50:07.646Z,68.00
2019-05-16T15:52:38.196Z,69.40
2019-05-16T15:55:09.923Z,68.60
2019-05-16T15:57:37.658Z,69.50
2019-05-16T16:00:10.493Z,69.90
2019-05-16T16:02:36.704Z,69.90
2019-05-16T16:05:07.231Z,71.00
2019-05-16T16:07:37.737Z,71.30
2019-05-16T16:10:06.835Z,71.90
2019-05-16T16:12:33.969Z,72.60
2019-05-16T16:15:02.877Z,72.90
2019-05-16T16:17:30.323Z,73.00
2019-05-16T16:19:58.255Z,74.20
2019-05-16T16:22:26.920Z,75.00
2019-05-16T16:24:57.319Z,75.70
2019-05-16T16:27:24.235Z,76.20
2019-05-16T16:29:52.139Z,75.80
2019-05-16T16:32:20.011Z,75.50
2019-05-16T16:34:48.957Z,76.20
2019-05-16T16:37:16.948Z,76.00
2019-05-16T16:39:47.008Z,76.20
2019-05-16T16:42:14.057Z,76.80
2019-05-16T16:44:41.940Z,77.40
2019-05-16T16:47:09.453Z,77.50
2019-05-16T16:49:39.755Z,78.30
2019-05-16T16:52:07.603Z,78.10
2019-05-16T16:54:37.024Z,79.30
2019-05-16T16:57:07.495Z,80.00
2019-05-16T16:59:34.093Z,79.70
2019-05-16T17:02:01.645Z,79.90
2019-05-16T17:04:30.524Z,80.70
2019-05-16T17:06:58.246Z,81.50
2019-05-16T17:09:26.982Z,81.80
2019-05-16T17:11:56.937Z,82.50
2019-05-16T17:14:26.256Z,83.10
2019-05-16T17:16:53.431Z,83.30
2019-05-16T17:19:20.999Z,84.40
2019-05-16T17:22:02.030Z,84.30
2019-05-16T17:24:18.659Z,84.90
2019-05-16T17:26:47.925Z,85.20
2019-05-16T17:29:17.091Z,85.70
2019-05-16T17:31:53.785Z,86.30
2019-05-16T17:34:16.329Z,86.50
2019-05-16T17:36:46.496Z,86.80
2019-05-16T17:39:22.972Z,86.70
2019-05-16T17:41:54.723Z,87.50
2019-05-16T17:44:20.117Z,88.00
2019-05-16T17:46:57.474Z,88.80
2019-05-16T17:49:26.675Z,89.40
2019-05-16T17:51:55.644Z,89.70
2019-05-16T17:54:23.740Z,90.10
2019-05-16T17:56:51.708Z,90.30
2019-05-16T17:59:19.159Z,90.40
2019-05-16T18:01:47.875Z,90.40
2019-05-16T18:04:17.179Z,90.40
2019-05-16T18:06:47.683Z,90.60
2019-05-16T18:09:17.033Z,90.80
2019-05-16T18:11:46.801Z,90.90
2019-05-16T18:14:16.957Z,90.80
2019-05-16T18:16:53.631Z,91.00
2019-05-16T18:19:13.970Z,91.00
2019-05-16T18:21:41.696Z,91.00
2019-05-16T18:24:10.109Z,91.20
2019-05-16T18:26:37.733Z,91.30
2019-05-16T18:29:06.830Z,91.30
2019-05-16T18:31:37.152Z,91.20
2019-05-16T18:34:04.273Z,91.40
2019-05-16T18:36:31.827Z,91.40
2019-05-16T18:38:59.368Z,91.70
2019-05-16T18:41:27.181Z,91.70
2019-05-16T18:43:56.574Z,91.70
2019-05-16T18:46:26.790Z,91.90
2019-05-16T18:48:53.901Z,92.10
2019-05-16T18:51:22.046Z,92.10
2019-05-16T18:53:50.496Z,92.30
2019-05-16T18:56:18.336Z,92.30
2019-05-16T18:58:46.649Z,92.40
2019-05-16T19:01:17.391Z,92.50
2019-05-16T19:03:46.444Z,92.70
2019-05-16T19:06:16.850Z,92.80
2019-05-16T19:08:44.115Z,93.20
2019-05-16T19:11:11.749Z,93.00
2019-05-16T19:13:39.292Z,93.10
2019-05-16T19:16:06.901Z,93.30
2019-05-16T19:18:36.682Z,93.30
2019-05-16T19:21:04.343Z,93.30
2019-05-16T19:23:37.448Z,93.40
2019-05-16T19:26:07.185Z,93.30
2019-05-16T19:28:37.939Z,93.80
2019-05-16T19:31:06.682Z,93.30
2019-05-16T19:33:37.117Z,93.20
2019-05-16T19:36:07.106Z,93.30
2019-05-16T19:38:34.293Z,93.30
2019-05-16T19:41:20.259Z,93.10
2019-05-16T19:43:48.285Z,93.30
2019-05-16T19:46:18.521Z,93.30
2019-05-16T19:48:46.599Z,93.30
2019-05-16T19:51:16.312Z,93.50
2019-05-16T19:53:44.376Z,93.50
2019-05-16T19:56:12.197Z,93.40
2019-05-16T19:58:39.985Z,93.50
2019-05-16T20:01:08.045Z,93.50
2019-05-16T20:03:36.490Z,93.60
2019-05-16T20:06:04.504Z,93.60
2019-05-16T20:08:32.733Z,93.60
2019-05-16T20:11:00.611Z,93.60
2019-05-16T20:13:30.435Z,93.60
2019-05-16T20:15:58.170Z,93.60
2019-05-16T20:18:27.317Z,93.70
2019-05-16T20:20:56.807Z,93.80
2019-05-16T20:23:27.343Z,93.80
2019-05-16T20:25:57.003Z,93.80
2019-05-16T20:28:26.500Z,93.70
2019-05-16T20:30:54.069Z,93.80
2019-05-16T20:33:21.694Z,93.80
2019-05-16T20:35:49.596Z,93.80
2019-05-16T20:38:17.427Z,93.90
2019-05-16T20:40:46.588Z,93.90
2019-05-16T20:43:16.691Z,93.90
2019-05-16T20:45:44.232Z,93.90
2019-05-16T20:48:15.437Z,93.90
2019-05-16T20:50:41.309Z,93.90
2019-05-16T20:53:08.966Z,94.10
2019-05-16T20:55:37.775Z,94.10
2019-05-16T20:58:07.680Z,94.20
2019-05-16T21:00:37.681Z,94.40
2019-05-16T21:03:07.103Z,94.50
2019-05-16T21:05:38.381Z,94.60
2019-05-16T21:08:06.455Z,94.60
2019-05-16T21:10:34.493Z,94.60
2019-05-16T21:13:02.395Z,94.60
2019-05-16T21:15:29.988Z,94.70
2019-05-16T21:17:58.072Z,94.60
2019-05-16T21:20:26.943Z,94.60
2019-05-16T21:22:56.545Z,94.70
2019-05-16T21:25:26.356Z,94.70
2019-05-16T21:27:54.072Z,94.70
2019-05-16T21:30:21.599Z,94.80
2019-05-16T21:32:49.279Z,95.00
2019-05-16T21:35:16.850Z,95.10
2019-05-16T21:37:46.649Z,95.20
2019-05-16T21:40:17.055Z,95.30
2019-05-16T21:42:45.293Z,95.30
2019-05-16T21:45:12.951Z,95.30
2019-05-16T21:47:40.620Z,95.30
2019-05-16T21:50:08.971Z,95.40
2019-05-16T21:52:36.573Z,95.50
2019-05-16T21:55:06.949Z,95.40
2019-05-16T21:57:37.744Z,95.50
2019-05-16T22:00:12.587Z,95.70
2019-05-16T22:02:40.441Z,95.90
2019-05-16T22:05:08.465Z,95.90
2019-05-16T22:07:36.514Z,95.90
2019-05-16T22:10:06.425Z,95.80
2019-05-16T22:12:34.275Z,95.90
2019-05-16T22:15:01.769Z,96.00
2019-05-16T22:17:29.833Z,95.90
2019-05-16T22:19:57.485Z,96.00
2019-05-16T22:22:27.599Z,96.30
2019-05-16T22:24:57.099Z,96.40
2019-05-16T22:27:26.768Z,96.40
2019-05-16T22:29:53.555Z,96.70
2019-05-16T22:32:21.045Z,97.30
2019-05-16T22:34:48.666Z,97.70
2019-05-16T22:37:17.152Z,98.10
2019-05-16T22:39:44.889Z,98.40
2019-05-16T22:42:12.487Z,98.60
2019-05-16T22:44:40.866Z,98.70
2019-05-16T22:47:08.296Z,98.90
2019-05-16T22:49:36.944Z,98.90
2019-05-16T22:52:06.646Z,99.00
2019-05-16T22:54:36.865Z,99.00
2019-05-16T22:57:04.005Z,99.00
2019-05-16T22:59:31.518Z,99.30
2019-05-16T23:01:59.630Z,99.40
2019-05-16T23:04:27.728Z,99.30
2019-05-16T23:06:56.470Z,99.30
2019-05-16T23:09:24.459Z,99.50
2019-05-16T23:11:52.019Z,99.60
2019-05-16T23:14:20.086Z,99.70
2019-05-16T23:16:47.569Z,99.80
2019-05-16T23:19:17.032Z,99.90
2019-05-16T23:21:44.273Z,99.90
2019-05-16T23:24:12.028Z,99.90
2019-05-16T23:26:40.048Z,99.90
2019-05-16T23:29:07.717Z,99.90
2019-05-16T23:31:36.584Z,99.90
2019-05-16T23:34:06.751Z,99.90
2019-05-16T23:36:33.741Z,99.90
2019-05-16T23:39:01.349Z,99.90
2019-05-16T23:41:29.013Z,99.90
2019-05-16T23:43:56.772Z,99.90
2019-05-16T23:46:24.367Z,99.90
2019-05-16T23:48:51.951Z,99.90
2019-05-16T23:51:19.409Z,99.90
2019-05-16T23:53:47.593Z,99.90
2019-05-16T23:56:16.665Z,99.90
2019-05-16T23:58:47.516Z,99.90
